Time;durP1;ratioP1;P1;durP2;ratioP2;P2;SDS_P1;SDS_P2;PMS_P1;PMS_P2;Temp;Humidity;BMP_temperature;BMP_pressure;BME280_temperature;BME280_humidity;BME280_pressure;Samples;Min_cycle;Max_cycle;Signal;HPM_P1;HPM_P2
2023/01/13 00:00:49;;;;;;;1.85;0.70;;;;;;;8.15;83.27;96928.44;5040169;28;20639;-63
2023/01/13 00:03:15;;;;;;;2.67;0.70;;;;;;;8.13;83.18;96917.06;5043228;28;20536;-63
2023/01/13 00:05:41;;;;;;;2.00;0.60;;;;;;;8.05;83.91;96913.72;5040137;28;20128;-63
2023/01/13 00:08:08;;;;;;;3.22;0.68;;;;;;;8.08;83.29;96912.41;5042715;28;20128;-63
2023/01/13 00:10:35;;;;;;;2.20;0.55;;;;;;;8.06;83.49;96917.22;5041397;28;20722;-63
2023/01/13 00:13:03;;;;;;;1.20;0.70;;;;;;;8.02;83.48;96913.41;5042018;28;20044;-63
2023/01/13 00:15:31;;;;;;;1.77;0.43;;;;;;;8.06;83.43;96906.44;5031066;28;20516;-63
2023/01/13 00:17:57;;;;;;;2.10;0.40;;;;;;;8.04;83.49;96905.88;5041764;28;20087;-63
2023/01/13 00:20:24;;;;;;;2.50;0.50;;;;;;;8.04;83.43;96908.59;5041373;28;20052;-64
2023/01/13 00:22:50;;;;;;;2.47;0.57;;;;;;;8.06;83.52;96906.44;5041110;28;20052;-63
2023/01/13 00:25:17;;;;;;;1.23;0.40;;;;;;;8.05;83.49;96902.94;5041025;28;20057;-63
2023/01/13 00:27:43;;;;;;;3.85;1.00;;;;;;;8.05;83.63;96894.88;5044705;28;20067;-63
2023/01/13 00:30:10;;;;;;;1.63;0.55;;;;;;;8.20;82.75;96898.84;5053004;28;20052;-63
2023/01/13 00:32:37;;;;;;;4.20;0.98;;;;;;;8.14;82.88;96899.84;5043512;28;20043;-62
2023/01/13 00:35:03;;;;;;;0.95;0.35;;;;;;;8.10;83.16;96904.88;5051233;28;20072;-62
2023/01/13 00:37:30;;;;;;;1.55;0.35;;;;;;;8.12;82.96;96892.00;5046387;28;20127;-63
2023/01/13 00:39:56;;;;;;;2.65;0.50;;;;;;;8.08;83.20;96893.56;5040900;28;20630;-64
2023/01/13 00:45:08;;;;;;;1.50;0.52;;;;;;;8.22;82.32;96882.41;5045592;28;20730;-63
2023/01/13 00:47:35;;;;;;;1.25;0.40;;;;;;;8.33;81.53;96884.97;5048620;28;20064;-63
2023/01/13 00:50:01;;;;;;;1.77;0.50;;;;;;;8.42;81.24;96882.69;5048842;28;20051;-63
2023/01/13 00:52:30;;;;;;;1.27;0.40;;;;;;;8.33;81.43;96876.88;5048954;28;20052;-63
2023/01/13 00:54:56;;;;;;;3.65;0.57;;;;;;;8.36;81.39;96874.78;5049772;28;20587;-62
2023/01/13 00:57:23;;;;;;;1.10;0.40;;;;;;;8.49;80.83;96871.69;5055065;28;20116;-63
2023/01/13 00:59:49;;;;;;;0.50;0.25;;;;;;;8.35;81.47;96887.44;5047787;28;20500;-63
2023/01/13 01:02:16;;;;;;;1.48;0.40;;;;;;;8.36;81.68;96875.56;5045991;28;20123;-63
2023/01/13 01:04:42;;;;;;;3.25;1.10;;;;;;;8.37;82.13;96879.09;5047646;28;20048;-62
2023/01/13 01:07:09;;;;;;;2.38;0.73;;;;;;;8.32;82.87;96877.97;5048339;28;20504;-63
2023/01/13 01:09:37;;;;;;;1.73;0.50;;;;;;;8.33;82.42;96865.28;5047933;28;20391;-63
2023/01/13 01:12:04;;;;;;;1.83;0.50;;;;;;;8.29;82.56;96866.88;5043756;28;20106;-63
2023/01/13 01:14:30;;;;;;;1.50;0.40;;;;;;;8.29;82.59;96869.56;5047226;28;20416;-62
2023/01/13 01:16:57;;;;;;;2.95;0.50;;;;;;;8.23;82.87;96870.53;5047068;28;20052;-63
2023/01/13 01:19:23;;;;;;;1.50;0.50;;;;;;;8.24;83.12;96867.59;5046226;28;20076;-63
2023/01/13 01:21:50;;;;;;;1.02;0.30;;;;;;;8.22;83.42;96869.72;5044948;28;20122;-63
2023/01/13 01:24:16;;;;;;;3.22;0.50;;;;;;;8.22;83.03;96867.03;5047124;28;20076;-63
2023/01/13 01:26:42;;;;;;;1.00;0.40;;;;;;;8.29;82.72;96866.88;5047357;28;20044;-63
2023/01/13 01:29:13;;;;;;;2.33;0.60;;;;;;;8.22;83.64;96869.72;5048002;28;20116;-63
2023/01/13 01:31:40;;;;;;;3.53;0.68;;;;;;;8.25;83.99;96871.13;5045419;28;20033;-63
2023/01/13 01:34:06;;;;;;;0.98;0.50;;;;;;;8.20;84.42;96879.94;5047859;28;20052;-63
2023/01/13 01:36:34;;;;;;;1.45;0.55;;;;;;;8.09;85.89;96881.69;5046879;28;20044;-63
2023/01/13 01:39:01;;;;;;;1.05;0.38;;;;;;;8.11;85.36;96876.84;5047298;28;20574;-63
2023/01/13 01:41:30;;;;;;;2.40;0.70;;;;;;;8.13;85.30;96872.03;5051920;28;20036;-63
2023/01/13 01:44:02;;;;;;;1.20;0.40;;;;;;;8.10;85.81;96871.72;5047337;28;20132;-62
2023/01/13 01:46:39;;;;;;;3.50;0.47;;;;;;;8.13;85.02;96872.03;5047319;28;20587;-62
2023/01/13 01:49:16;;;;;;;2.47;0.45;;;;;;;8.14;84.86;96870.97;5046656;28;20538;-62
2023/01/13 01:51:48;;;;;;;0.95;0.40;;;;;;;8.11;86.46;96865.25;5045061;28;20112;-63
2023/01/13 01:54:21;;;;;;;0.88;0.35;;;;;;;8.15;85.63;96856.41;5047172;28;20119;-63
2023/01/13 01:56:48;;;;;;;1.58;0.25;;;;;;;8.22;85.26;96860.81;5046104;28;20107;-62
2023/01/13 01:59:15;;;;;;;1.00;0.30;;;;;;;8.34;84.30;96861.53;5045714;28;20108;-62
2023/01/13 02:01:43;;;;;;;1.05;0.30;;;;;;;8.33;84.60;96862.56;5045674;28;20095;-62
2023/01/13 02:04:22;;;;;;;3.10;0.55;;;;;;;8.35;84.36;96859.63;5047315;28;20052;-63
2023/01/13 02:06:49;;;;;;;0.77;0.50;;;;;;;8.32;84.50;96866.34;5045752;28;20148;-62
2023/01/13 02:09:16;;;;;;;0.63;0.22;;;;;;;8.33;84.50;96862.56;5047337;28;20072;-63
2023/01/13 02:14:29;;;;;;;1.42;0.70;;;;;;;8.31;84.82;96854.75;5058737;28;20068;-63
2023/01/13 02:17:14;;;;;;;0.90;0.20;;;;;;;8.30;84.88;96849.59;5046324;28;20079;-64
2023/01/13 02:19:56;;;;;;;0.93;0.30;;;;;;;8.31;84.97;96846.66;5046780;28;20037;-63
2023/01/13 02:22:41;;;;;;;0.28;0.28;;;;;;;8.26;85.42;96853.88;5056298;28;20037;-63
2023/01/13 02:25:21;;;;;;;0.88;0.40;;;;;;;8.24;86.10;96850.59;5041619;28;20727;-62
2023/01/13 02:28:32;;;;;;;1.55;0.68;;;;;;;8.19;86.50;96848.66;5046808;28;20044;-63
2023/01/13 02:34:04;;;;;;;;;;;;;;;8.05;87.49;96835.53;5043770;28;20512;-63
2023/01/13 02:36:57;;;;;;;1.67;0.47;;;;;;;8.20;86.68;96834.09;5044970;28;19920;-63
2023/01/13 02:39:37;;;;;;;1.48;0.50;;;;;;;8.02;88.06;96830.63;5036092;28;20647;-63
2023/01/13 02:45:25;;;;;;;2.65;0.60;;;;;;;8.01;89.25;96820.09;5036404;28;20061;-62
2023/01/13 02:47:54;;;;;;;1.13;0.40;;;;;;;7.98;90.05;96820.59;5045054;28;20041;-63
2023/01/13 02:50:27;;;;;;;0.90;0.40;;;;;;;7.95;90.20;96819.22;5044128;28;20044;-63
2023/01/13 02:52:59;;;;;;;1.17;0.32;;;;;;;7.86;90.93;96818.84;5044871;28;20075;-63
2023/01/13 02:55:35;;;;;;;2.10;0.50;;;;;;;7.87;91.07;96816.94;5042130;28;20079;-63
2023/01/13 02:58:06;;;;;;;1.98;0.50;;;;;;;7.84;91.50;96809.34;5045493;28;20041;-63
2023/01/13 03:00:34;;;;;;;1.17;0.32;;;;;;;7.83;91.36;96823.88;5044459;28;20064;-63
2023/01/13 03:03:00;;;;;;;1.30;0.60;;;;;;;7.86;91.21;96826.09;5045475;28;20036;-63
2023/01/13 03:05:28;;;;;;;3.17;0.80;;;;;;;7.86;90.55;96818.00;5044387;28;20051;-63
2023/01/13 03:07:55;;;;;;;2.42;0.60;;;;;;;7.85;91.03;96814.47;5046234;28;20052;-64
2023/01/13 03:10:34;;;;;;;2.85;0.40;;;;;;;7.85;90.85;96805.59;5045034;28;20397;-63
2023/01/13 03:13:40;;;;;;;0.77;0.30;;;;;;;7.90;90.50;96811.06;5046436;28;20416;-63
2023/01/13 03:16:34;;;;;;;1.23;0.28;;;;;;;7.97;89.64;96797.41;5041685;28;20041;-63
2023/01/13 03:19:20;;;;;;;3.60;1.02;;;;;;;7.91;89.65;96800.03;5045895;28;20039;-63
2023/01/13 03:22:16;;;;;;;1.75;0.30;;;;;;;7.99;89.39;96800.69;5035482;28;20044;-62
2023/01/13 03:25:04;;;;;;;1.90;0.40;;;;;;;7.89;89.82;96804.84;5035816;28;20040;-62
2023/01/13 03:27:41;;;;;;;0.70;0.50;;;;;;;7.92;89.82;96801.66;5046720;28;20061;-63
2023/01/13 03:30:11;;;;;;;1.08;0.50;;;;;;;7.88;90.84;96783.53;5045549;28;20053;-62
2023/01/13 03:32:41;;;;;;;2.38;0.35;;;;;;;7.84;91.53;96779.69;5054449;28;20501;-62
2023/01/13 03:35:15;;;;;;;1.05;0.85;;;;;;;7.76;92.00;96780.94;5050714;28;20083;-62
2023/01/13 03:37:48;;;;;;;1.77;0.50;;;;;;;7.78;92.15;96771.53;5042930;28;20061;-62
2023/01/13 03:40:19;;;;;;;1.77;0.40;;;;;;;7.75;91.99;96779.31;5044782;28;20045;-62
2023/01/13 03:45:50;;;;;;;2.35;0.60;;;;;;;7.76;91.59;96780.94;5043897;28;20358;-63
2023/01/13 03:48:21;;;;;;;1.27;0.30;;;;;;;7.79;91.07;96767.81;5045603;28;20044;-63
2023/01/13 03:50:51;;;;;;;2.78;0.50;;;;;;;7.86;90.69;96767.63;5043009;28;20115;-63
2023/01/13 03:53:22;;;;;;;1.00;0.47;;;;;;;7.85;90.85;96762.47;5039483;28;20106;-63
2023/01/13 03:55:58;;;;;;;3.35;0.70;;;;;;;7.79;91.29;96758.91;5044326;28;20133;-62
2023/01/13 03:58:31;;;;;;;2.67;0.50;;;;;;;7.77;91.36;96752.91;5046364;28;20528;-63
2023/01/13 04:01:03;;;;;;;1.02;0.50;;;;;;;7.76;91.05;96754.81;5041590;28;20138;-63
2023/01/13 04:03:42;;;;;;;2.90;0.60;;;;;;;7.76;91.40;96757.50;5044012;28;20389;-64
2023/01/13 04:06:13;;;;;;;3.00;0.40;;;;;;;7.85;90.44;96752.50;5029042;28;20047;-63
2023/01/13 04:08:48;;;;;;;3.28;0.60;;;;;;;7.88;90.33;96759.25;5044839;28;20063;-63
2023/01/13 04:11:24;;;;;;;1.35;0.50;;;;;;;7.86;90.33;96761.41;5042984;28;20041;-63
2023/01/13 04:13:52;;;;;;;1.67;0.68;;;;;;;7.90;89.77;96749.88;5041123;28;20033;-63
2023/01/13 04:16:19;;;;;;;1.92;0.50;;;;;;;7.92;89.54;96758.53;5044475;28;20068;-62
2023/01/13 04:18:48;;;;;;;1.50;0.55;;;;;;;7.91;89.49;96756.91;5045384;28;20547;-64
2023/01/13 04:21:15;;;;;;;1.27;0.60;;;;;;;7.89;89.49;96753.63;5047303;28;20036;-63
2023/01/13 04:23:41;;;;;;;1.55;0.40;;;;;;;7.93;88.99;96757.44;5048092;28;20053;-63
2023/01/13 04:26:08;;;;;;;2.13;0.55;;;;;;;7.91;89.37;96750.69;5032187;28;20045;-64
2023/01/13 04:28:34;;;;;;;1.17;0.35;;;;;;;7.93;88.79;96745.88;5048752;28;20144;-63
2023/01/13 04:31:01;;;;;;;1.38;0.57;;;;;;;7.92;89.18;96755.00;5045666;28;20136;-63
2023/01/13 04:33:27;;;;;;;2.05;0.55;;;;;;;7.95;88.68;96749.13;5049486;28;20069;-63
2023/01/13 04:35:54;;;;;;;2.65;0.50;;;;;;;7.93;88.46;96743.19;5047749;28;20136;-63
2023/01/13 04:38:20;;;;;;;1.98;0.50;;;;;;;7.97;88.58;96747.00;5049247;28;20072;-63
2023/01/13 04:40:47;;;;;;;1.42;0.50;;;;;;;7.97;88.18;96735.41;5045990;28;20044;-63
2023/01/13 04:43:14;;;;;;;2.42;0.40;;;;;;;7.99;87.94;96735.97;5048309;28;20091;-63
2023/01/13 04:45:42;;;;;;;2.58;0.75;;;;;;;8.00;87.78;96726.81;5047208;28;20115;-63
2023/01/13 04:48:09;;;;;;;0.75;0.30;;;;;;;8.02;87.60;96730.88;5048999;28;20049;-63
2023/01/13 04:50:36;;;;;;;1.67;0.40;;;;;;;7.99;88.00;96728.69;5045242;28;20079;-63
2023/01/13 04:53:02;;;;;;;2.40;0.68;;;;;;;8.00;87.91;96721.41;5048680;28;20043;-63
2023/01/13 04:55:30;;;;;;;1.55;0.57;;;;;;;8.00;88.01;96730.31;5048269;28;20047;-63
2023/01/13 04:58:04;;;;;;;1.17;0.40;;;;;;;8.08;87.58;96729.06;5044873;28;20049;-63
2023/01/13 05:00:31;;;;;;;0.98;0.30;;;;;;;8.08;87.31;96734.47;5046828;28;20053;-64
2023/01/13 05:02:58;;;;;;;1.65;0.52;;;;;;;8.07;87.69;96733.63;5047133;28;20041;-63
2023/01/13 05:05:26;;;;;;;1.63;0.40;;;;;;;8.13;87.06;96733.69;5048346;28;20037;-64
2023/01/13 05:07:53;;;;;;;2.72;0.50;;;;;;;8.11;86.98;96736.63;5048467;28;20041;-63
2023/01/13 05:10:20;;;;;;;1.77;0.40;;;;;;;8.06;87.40;96731.19;5047728;28;20076;-63
2023/01/13 05:18:23;;;;;;;2.08;0.32;;;;;;;8.15;86.60;96735.06;5048101;28;20116;-63
2023/01/13 05:20:49;;;;;;;0.50;0.30;;;;;;;8.14;86.58;96728.06;5045119;28;20110;-63
2023/01/13 05:26:01;;;;;;;2.53;0.80;;;;;;;8.14;86.46;96725.34;5047453;28;20490;-63
2023/01/13 05:28:32;;;;;;;1.42;0.70;;;;;;;8.17;86.45;96727.56;5047705;28;20056;-63
2023/01/13 05:30:59;;;;;;;0.70;0.30;;;;;;;8.15;86.47;96715.38;5045268;28;20076;-64
2023/01/13 05:33:25;;;;;;;0.70;0.22;;;;;;;8.18;86.46;96720.25;5047822;28;20037;-63
2023/01/13 05:35:52;;;;;;;0.55;0.30;;;;;;;8.18;86.45;96723.78;5046594;28;20052;-63
2023/01/13 05:38:18;;;;;;;0.90;0.25;;;;;;;8.14;86.82;96711.06;5047732;28;20107;-62
2023/01/13 05:43:31;;;;;;;1.42;0.45;;;;;;;8.18;86.55;96712.16;5046273;28;20119;-63
2023/01/13 05:46:04;;;;;;;1.95;0.25;;;;;;;8.23;86.35;96714.13;5045908;28;20114;-64
2023/01/13 05:48:37;;;;;;;0.70;0.38;;;;;;;8.31;85.53;96724.47;5046539;28;20049;-66
2023/01/13 05:51:05;;;;;;;1.52;0.38;;;;;;;8.37;85.56;96731.53;5045346;28;20040;-63
2023/01/13 05:53:32;;;;;;;1.20;0.50;;;;;;;8.30;85.74;96725.53;5047532;28;20053;-63
2023/01/13 05:56:02;;;;;;;1.95;0.50;;;;;;;8.27;85.94;96726.84;5047309;28;20041;-63
2023/01/13 05:58:28;;;;;;;1.23;0.40;;;;;;;8.20;86.39;96728.94;5054276;28;20079;-61
2023/01/13 06:01:00;;;;;;;0.65;0.30;;;;;;;8.18;86.44;96736.44;5066206;28;20400;-62
2023/01/13 06:03:27;;;;;;;1.77;0.28;;;;;;;8.16;86.89;96734.03;5048120;28;20157;-61
2023/01/13 06:05:57;;;;;;;0.25;0.17;;;;;;;8.23;86.66;96730.31;5046757;28;20041;-61
2023/01/13 06:08:24;;;;;;;0.60;0.30;;;;;;;8.19;86.74;96728.09;5046805;28;20048;-61
2023/01/13 06:10:51;;;;;;;1.45;0.30;;;;;;;8.23;86.57;96735.69;5043934;28;20049;-61
2023/01/13 06:13:18;;;;;;;1.00;0.30;;;;;;;8.22;86.98;96725.97;5046257;28;20041;-62
2023/01/13 06:15:44;;;;;;;0.45;0.25;;;;;;;8.19;86.77;96733.50;5046527;28;20061;-61
2023/01/13 06:18:11;;;;;;;1.63;0.40;;;;;;;8.16;87.16;96723.22;5046425;28;20045;-61
2023/01/13 06:20:37;;;;;;;0.88;0.30;;;;;;;8.14;87.54;96732.66;5045348;28;20131;-61
2023/01/13 06:23:08;;;;;;;1.50;0.52;;;;;;;8.13;87.50;96723.72;5046040;28;20033;-61
2023/01/13 06:26:07;;;;;;;0.43;0.32;;;;;;;8.23;86.86;96731.13;5046420;28;20522;-61
2023/01/13 06:28:33;;;;;;;1.77;0.50;;;;;;;8.17;87.03;96730.25;5037207;28;20041;-61
2023/01/13 06:31:04;;;;;;;1.73;0.43;;;;;;;8.14;87.43;96716.47;5045948;28;20484;-61
2023/01/13 06:33:44;;;;;;;1.38;0.40;;;;;;;8.24;86.89;96726.53;5046562;28;20064;-61
2023/01/13 06:36:15;;;;;;;2.63;0.60;;;;;;;8.19;86.94;96716.53;5045630;28;20083;-61
2023/01/13 06:38:46;;;;;;;0.60;0.30;;;;;;;8.17;87.24;96716.75;5053240;28;20098;-61
2023/01/13 06:41:13;;;;;;;0.57;0.40;;;;;;;8.16;87.04;96717.84;5046098;28;20098;-61
2023/01/13 06:43:40;;;;;;;0.77;0.30;;;;;;;8.13;87.63;96715.63;5041204;28;20423;-61
2023/01/13 06:46:07;;;;;;;0.95;0.32;;;;;;;8.27;86.54;96712.53;5044251;28;20045;-61
2023/01/13 06:48:34;;;;;;;0.80;0.30;;;;;;;8.22;86.99;96721.38;5042141;28;20629;-61
2023/01/13 06:51:02;;;;;;;0.10;0.10;;;;;;;8.22;86.93;96709.81;5042677;28;20703;-61
2023/01/13 06:53:29;;;;;;;0.88;0.30;;;;;;;8.15;87.09;96713.50;5051529;28;20036;-61
2023/01/13 06:55:56;;;;;;;0.80;0.30;;;;;;;8.19;87.23;96714.63;5043863;28;20661;-62
2023/01/13 06:58:22;;;;;;;0.45;0.20;;;;;;;8.25;86.67;96715.50;5039661;28;20504;-61
2023/01/13 07:00:50;;;;;;;0.90;0.20;;;;;;;8.25;87.08;96706.59;5041789;28;20049;-61
2023/01/13 07:03:17;;;;;;;1.80;0.43;;;;;;;8.22;88.31;96713.28;5042296;28;20049;-61
2023/01/13 07:05:51;;;;;;;0.77;0.50;;;;;;;8.20;89.37;96710.88;5042684;28;20090;-61
2023/01/13 07:08:18;;;;;;;1.58;0.40;;;;;;;8.11;91.15;96712.38;5041877;28;20786;-61
2023/01/13 07:10:44;;;;;;;0.28;0.17;;;;;;;8.03;91.89;96702.84;5042333;28;20052;-61
2023/01/13 07:15:59;;;;;;;1.50;0.47;;;;;;;8.07;91.32;96708.53;5039524;28;20456;-61
2023/01/13 07:18:30;;;;;;;1.02;0.30;;;;;;;8.04;91.01;96711.75;5042077;28;20036;-61
2023/01/13 07:20:59;;;;;;;1.27;0.50;;;;;;;8.07;90.40;96717.47;5040938;28;20056;-61
2023/01/13 07:23:27;;;;;;;0.57;0.20;;;;;;;8.12;90.48;96721.28;5041487;28;20033;-61
2023/01/13 07:25:58;;;;;;;0.45;0.30;;;;;;;8.17;89.54;96737.50;5046745;28;20550;-61
2023/01/13 07:28:26;;;;;;;0.90;0.30;;;;;;;8.19;88.88;96721.91;5043181;28;20056;-61
2023/01/13 07:30:53;;;;;;;2.58;0.75;;;;;;;8.20;89.20;96718.97;5041208;28;20077;-61
2023/01/13 07:33:20;;;;;;;0.88;0.38;;;;;;;8.20;89.21;96710.88;5042459;28;20041;-61
2023/01/13 07:35:58;;;;;;;2.80;0.60;;;;;;;8.17;88.87;96710.53;5041923;28;20573;-61
2023/01/13 07:38:25;;;;;;;0.82;0.43;;;;;;;8.21;88.73;96714.38;5042896;28;20073;-62
2023/01/13 07:40:52;;;;;;;2.03;0.50;;;;;;;8.18;88.57;96707.59;5040426;28;20053;-62
2023/01/13 07:43:31;;;;;;;1.80;0.47;;;;;;;8.21;88.72;96708.97;5042745;28;20608;-61
2023/01/13 07:45:59;;;;;;;1.27;0.45;;;;;;;8.26;88.40;96717.13;5041089;28;20044;-61
2023/01/13 07:48:26;;;;;;;1.08;0.40;;;;;;;8.30;88.13;96717.44;5040048;28;20049;-61
2023/01/13 07:50:54;;;;;;;1.20;0.20;;;;;;;8.30;89.17;96723.63;5037897;28;20041;-61
2023/01/13 07:53:23;;;;;;;0.60;0.30;;;;;;;8.25;90.13;96722.78;5055006;28;20124;-61
2023/01/13 07:55:54;;;;;;;0.68;0.20;;;;;;;8.29;90.50;96729.31;5040763;28;20041;-61
2023/01/13 07:58:21;;;;;;;0.98;0.30;;;;;;;8.31;89.54;96736.06;5037786;28;20056;-61
2023/01/13 08:00:47;;;;;;;2.15;0.40;;;;;;;8.30;89.80;96742.50;5039281;28;20040;-60
2023/01/13 08:03:14;;;;;;;0.70;0.20;;;;;;;8.29;91.81;96742.78;5042569;28;20041;-61
2023/01/13 08:05:41;;;;;;;0.30;0.20;;;;;;;8.24;91.94;96753.50;5041878;28;21017;-59
2023/01/13 08:08:07;;;;;;;1.73;0.30;;;;;;;8.25;93.36;96766.75;5043230;28;20044;-61
2023/01/13 08:10:34;;;;;;;0.93;0.30;;;;;;;8.12;94.95;96767.94;5039612;28;20079;-61
2023/01/13 08:13:19;;;;;;;0.40;0.25;;;;;;;8.01;95.78;96777.78;5052154;28;20052;-61
2023/01/13 08:15:52;;;;;;;0.68;0.30;;;;;;;8.02;95.59;96800.16;5048371;28;20041;-60
2023/01/13 08:18:21;;;;;;;1.77;0.60;;;;;;;8.09;94.73;96786.50;5042579;28;20051;-60
2023/01/13 08:20:48;;;;;;;0.40;0.22;;;;;;;8.05;96.30;96800.50;5035002;28;20048;-60
2023/01/13 08:23:15;;;;;;;1.30;0.40;;;;;;;7.99;98.31;96792.59;5055580;28;20041;-60
2023/01/13 08:25:42;;;;;;;1.35;0.25;;;;;;;8.03;98.59;96799.09;5043777;28;20417;-61
2023/01/13 08:28:09;;;;;;;4.20;1.35;;;;;;;8.01;98.39;96785.88;5042355;28;20041;-61
2023/01/13 08:30:36;;;;;;;0.45;0.20;;;;;;;8.05;98.01;96802.34;5041314;28;20067;-61
2023/01/13 08:33:06;;;;;;;0.50;0.30;;;;;;;7.95;99.04;96811.13;5042630;28;20513;-61
2023/01/13 08:35:38;;;;;;;0.93;0.40;;;;;;;7.90;100.00;96816.44;5044294;28;20037;-61
2023/01/13 08:38:05;;;;;;;;;;;;;;;7.80;100.00;96815.25;5043470;28;20294;-61
2023/01/13 08:40:32;;;;;;;0.65;0.20;;;;;;;7.84;100.00;96834.44;5040873;28;19972;-61
2023/01/13 08:42:58;;;;;;;0.68;0.30;;;;;;;7.85;100.00;96852.22;5036117;28;20685;-60
2023/01/13 08:45:25;;;;;;;;;;;;;;;7.90;100.00;96900.84;5042046;28;20045;-61
2023/01/13 08:47:51;;;;;;;;;;;;;;;7.31;100.00;96926.28;5042921;28;20023;-61
2023/01/13 08:50:18;;;;;;;;;;;;;;;6.70;100.00;96935.59;5041120;28;19921;-61
2023/01/13 08:52:45;;;;;;;;;;;;;;;6.55;100.00;96903.00;5033055;28;20012;-61
2023/01/13 08:55:11;;;;;;;;;;;;;;;6.34;100.00;96924.91;5042287;28;20366;-61
2023/01/13 08:57:37;;;;;;;;;;;;;;;6.30;100.00;96912.19;5042758;28;19971;-61
2023/01/13 09:00:05;;;;;;;;;;;;;;;6.13;100.00;96904.00;5042708;28;19924;-60
2023/01/13 09:02:32;;;;;;;;;;;;;;;6.02;100.00;96908.31;5041661;28;20024;-61
2023/01/13 09:05:03;;;;;;;;;;;;;;;6.04;100.00;96919.69;5042733;28;20386;-61
2023/01/13 09:07:30;;;;;;;;;;;;;;;6.11;100.00;96906.91;5049429;28;19929;-61
2023/01/13 09:09:56;;;;;;;;;;;;;;;6.09;100.00;96904.47;5064077;28;19923;-60
2023/01/13 09:15:08;;;;;;;;;;;;;;;6.20;100.00;96916.25;5043063;28;19930;-60
2023/01/13 09:17:35;;;;;;;;;;;;;;;6.34;99.29;96908.78;5046807;28;19975;-60
2023/01/13 09:20:01;;;;;;;;;;;;;;;6.50;96.58;96917.97;5059523;28;20023;-59
2023/01/13 09:22:28;;;;;;;;;;;;;;;6.54;97.08;96921.03;5044418;28;20315;-61
2023/01/13 09:24:54;;;;;;;;;;;;;;;6.53;97.08;96914.03;5048583;28;19933;-60
2023/01/13 09:27:22;;;;;;;;;;;;;;;6.57;96.93;96912.50;5046732;28;20277;-60
2023/01/13 09:29:48;;;;;;;;;;;;;;;6.50;98.42;96915.28;5058171;28;20241;-60
2023/01/13 09:32:15;;;;;;;;;;;;;;;6.51;99.49;96918.81;5052371;28;20400;-60
2023/01/13 09:34:59;;;;;;;;;;;;;;;6.65;97.50;96924.75;5055866;28;19924;-61
2023/01/13 09:37:27;;;;;;;;;;;;;;;6.82;96.90;96926.69;5047199;28;19924;-60
2023/01/13 09:39:53;;;;;;;;;;;;;;;6.93;96.21;96922.34;5065886;28;19925;-60
2023/01/13 09:45:20;;;;;;;;;;;;;;;6.95;94.21;96930.97;5043902;28;19920;-61
2023/01/13 09:48:05;;;;;;;;;;;;;;;6.95;94.71;96939.88;5044999;28;19975;-60
2023/01/13 09:50:50;;;;;;;;;;;;;;;6.95;92.87;96931.81;5044774;28;19931;-60
2023/01/13 09:53:22;;;;;;;;;;;;;;;6.90;91.09;96945.97;5056093;28;20019;-60
2023/01/13 09:55:48;;;;;;;;;;;;;;;6.90;91.56;96937.88;5047132;28;19948;-60
2023/01/13 09:58:16;;;;;;;;;;;;;;;6.93;91.61;96954.63;5046147;28;19929;-60
2023/01/13 10:01:01;;;;;;;;;;;;;;;6.85;92.71;96947.72;5043967;28;19925;-60
2023/01/13 10:03:29;;;;;;;;;;;;;;;6.78;94.13;96957.81;5046203;28;19920;-60
2023/01/13 10:05:59;;;;;;;;;;;;;;;6.83;94.19;96942.59;5060247;28;19920;-61
2023/01/13 10:08:31;;;;;;;;;;;;;;;6.79;94.94;96946.84;5050563;28;20493;-60
2023/01/13 10:10:59;;;;;;;;;;;;;;;6.82;95.27;96943.63;5043880;28;20376;-60
2023/01/13 10:13:30;;;;;;;1.00;0.40;;;;;;;6.82;96.27;96949.03;5045717;28;19931;-59
2023/01/13 10:16:14;;;;;;;1.90;0.20;;;;;;;6.70;96.60;96949.06;5040467;28;20098;-60
2023/01/13 10:18:50;;;;;;;0.73;0.47;;;;;;;6.75;96.95;96956.44;5044619;28;20127;-60
2023/01/13 10:21:26;;;;;;;3.30;0.45;;;;;;;6.84;96.89;96965.78;5043376;28;20103;-60
2023/01/13 10:24:06;;;;;;;3.70;0.50;;;;;;;6.84;96.69;96963.06;5042879;28;20462;-60
2023/01/13 10:27:01;;;;;;;2.20;0.30;;;;;;;6.92;96.42;96963.78;5060255;28;20462;-60
2023/01/13 10:29:29;;;;;;;1.08;0.32;;;;;;;7.00;97.14;96971.44;5034694;28;20448;-60
2023/01/13 10:31:58;;;;;;;0.30;0.20;;;;;;;6.74;98.21;96973.59;5041641;28;20105;-60
2023/01/13 10:34:26;;;;;;;3.22;0.40;;;;;;;6.56;100.00;96980.78;5045447;28;20045;-60
2023/01/13 10:37:01;;;;;;;;;;;;;;;6.61;100.00;96988.97;5056621;28;20106;-61
2023/01/13 10:39:37;;;;;;;;;;;;;;;6.38;100.00;96985.22;5044441;28;19995;-60
2023/01/13 10:42:05;;;;;;;;;;;;;;;6.13;100.00;96992.72;5042244;28;20324;-61
2023/01/13 10:44:44;;;;;;;;;;;;;;;5.99;100.00;96980.28;5042978;28;19943;-60
2023/01/13 10:47:18;;;;;;;;;;;;;;;5.94;100.00;96961.34;5044141;28;20443;-60
2023/01/13 10:49:57;;;;;;;;;;;;;;;5.88;100.00;96958.75;5052477;28;19928;-60
2023/01/13 10:52:32;;;;;;;1.25;0.40;;;;;;;5.86;100.00;96961.69;5045891;28;20011;-60
2023/01/13 10:54:59;;;;;;;1.42;0.60;;;;;;;5.91;100.00;96967.19;5047810;28;20115;-60
2023/01/13 10:57:27;;;;;;;3.03;0.47;;;;;;;5.93;100.00;96959.72;5045142;28;20048;-62
2023/01/13 10:59:55;;;;;;;2.22;0.88;;;;;;;5.92;100.00;96966.13;5044750;28;20050;-60
2023/01/13 11:02:32;;;;;;;5.78;2.70;;;;;;;6.02;100.00;96951.31;5042034;28;20836;-60
2023/01/13 11:05:17;;;;;;;4.80;0.75;;;;;;;6.05;100.00;96951.69;5047024;28;20071;-60
2023/01/13 11:07:51;;;;;;;3.75;1.52;;;;;;;5.95;100.00;96954.09;5043859;28;20052;-60
2023/01/13 11:10:17;;;;;;;2.90;0.50;;;;;;;5.97;100.00;96942.06;5043316;28;20045;-60
2023/01/13 11:13:09;;;;;;;2.55;0.60;;;;;;;5.87;99.76;96949.91;5053382;28;20089;-60
2023/01/13 11:15:42;;;;;;;3.95;1.38;;;;;;;5.79;100.00;96974.41;5043525;28;20122;-60
2023/01/13 11:18:13;;;;;;;3.70;0.60;;;;;;;5.80;99.87;96963.44;5054148;28;20044;-61
2023/01/13 11:20:45;;;;;;;5.28;0.85;;;;;;;5.92;98.83;96968.81;5042301;28;20056;-59
2023/01/13 11:23:45;;;;;;;3.92;1.42;;;;;;;5.96;100.00;96966.47;5043467;28;20115;-60
2023/01/13 11:26:20;;;;;;;4.95;0.60;;;;;;;6.05;100.00;96975.88;5041649;28;20063;-60
2023/01/13 11:28:54;;;;;;;3.50;1.00;;;;;;;6.09;100.00;96974.34;5026745;28;20120;-60
2023/01/13 11:31:48;;;;;;;3.95;1.73;;;;;;;6.22;99.49;96978.69;5048005;28;20133;-61
2023/01/13 11:34:38;;;;;;;2.67;0.55;;;;;;;6.43;99.68;96979.16;5037919;28;20467;-60
2023/01/13 11:37:16;;;;;;;2.88;0.73;;;;;;;6.55;98.62;96981.84;5043263;28;20078;-62
2023/01/13 11:40:04;;;;;;;3.50;0.77;;;;;;;6.42;100.00;96969.47;5029481;28;20037;-61
2023/01/13 11:42:34;;;;;;;6.18;1.20;;;;;;;6.31;99.88;96976.50;5037964;28;20124;-60
2023/01/13 11:45:17;;;;;;;7.43;1.48;;;;;;;6.42;98.71;96979.41;5042999;28;20079;-61
2023/01/13 11:47:49;;;;;;;3.45;0.95;;;;;;;6.58;97.64;96999.38;5043313;28;20155;-62
2023/01/13 11:50:49;;;;;;;5.30;1.23;;;;;;;6.67;98.35;96975.63;5042937;28;20101;-62
2023/01/13 11:53:29;;;;;;;5.40;0.75;;;;;;;6.84;100.00;96973.84;5042785;28;20052;-62
2023/01/13 11:56:28;;;;;;;5.20;1.40;;;;;;;6.86;96.81;96966.34;5042590;28;20774;-62
2023/01/13 11:59:03;;;;;;;5.05;1.00;;;;;;;6.90;96.94;96961.31;5042926;28;20552;-62
2023/01/13 12:02:12;;;;;;;2.90;1.25;;;;;;;6.93;94.70;96950.03;5041412;28;20812;-62
2023/01/13 12:04:57;;;;;;;5.95;1.00;;;;;;;6.96;92.34;96973.00;5036356;28;20546;-62
2023/01/13 12:07:52;;;;;;;4.53;0.60;;;;;;;7.00;92.02;96963.38;5028847;28;20123;-63
2023/01/13 12:10:43;;;;;;;3.92;1.15;;;;;;;7.02;91.46;96972.88;5042658;28;20048;-63
2023/01/13 12:13:47;;;;;;;4.27;1.37;;;;;;;7.03;88.61;96979.03;5056281;28;20123;-64
2023/01/13 12:16:29;;;;;;;3.22;0.70;;;;;;;7.08;88.93;96975.66;5042197;28;20052;-61
2023/01/13 12:19:06;;;;;;;1.80;0.63;;;;;;;7.14;89.26;96991.66;5031346;28;20053;-63
2023/01/13 12:21:39;;;;;;;4.03;0.50;;;;;;;7.15;89.42;96979.03;5040056;28;20049;-62
2023/01/13 12:24:30;;;;;;;3.08;0.80;;;;;;;7.29;85.67;96980.38;5042688;28;20044;-62
2023/01/13 12:27:11;;;;;;;4.30;0.70;;;;;;;7.24;84.57;97003.69;5038597;28;20048;-62
2023/01/13 12:29:38;;;;;;;1.60;0.43;;;;;;;6.99;84.48;97005.63;5041491;28;20776;-62
2023/01/13 12:32:14;;;;;;;3.33;0.70;;;;;;;6.96;84.12;97003.41;5047675;28;20079;-61
2023/01/13 12:35:15;;;;;;;2.92;0.73;;;;;;;6.97;82.73;96991.59;5042596;28;20116;-62
2023/01/13 12:38:27;;;;;;;3.97;0.80;;;;;;;7.01;82.35;97000.03;5047320;28;20049;-62
2023/01/13 12:41:31;;;;;;;2.20;0.70;;;;;;;6.91;83.66;97006.00;5033844;28;20138;-61
2023/01/13 12:44:16;;;;;;;6.70;1.40;;;;;;;6.95;80.86;97003.66;5046064;28;20045;-62
2023/01/13 12:46:57;;;;;;;4.15;1.17;;;;;;;6.92;80.82;97006.84;5049477;28;20045;-61
2023/01/13 12:49:27;;;;;;;4.73;1.03;;;;;;;6.96;80.09;97005.31;5045661;28;20063;-62